createdAt,value
2022-08-05T00:02:57.235Z,8.80
2022-08-05T00:07:00.965Z,9.55
2022-08-05T00:11:30.317Z,7.07
2022-08-05T00:15:56.050Z,5.10
2022-08-05T00:20:02.472Z,5.35
2022-08-05T00:24:10.409Z,5.60
2022-08-05T00:28:14.004Z,5.00
2022-08-05T00:32:18.152Z,4.68
2022-08-05T00:37:12.516Z,5.78
2022-08-05T00:40:53.158Z,6.10
2022-08-05T00:44:56.217Z,5.00
2022-08-05T00:49:00.303Z,4.90
2022-08-05T00:53:03.103Z,3.83
2022-08-05T00:57:12.436Z,4.10
2022-08-05T01:01:16.215Z,4.45
2022-08-05T01:05:40.815Z,5.18
2022-08-05T01:09:44.717Z,6.10
2022-08-05T01:13:59.099Z,10.85
2022-08-05T01:18:06.049Z,6.88
2022-08-05T01:22:24.599Z,7.18
2022-08-05T01:26:49.529Z,6.25
2022-08-05T01:30:57.872Z,5.90
2022-08-05T01:35:02.959Z,8.05
2022-08-05T01:39:16.249Z,6.00
2022-08-05T01:43:39.444Z,6.47
2022-08-05T01:47:46.837Z,6.80
2022-08-05T01:51:52.543Z,6.57
2022-08-05T01:55:58.944Z,6.65
2022-08-05T02:00:12.125Z,6.85
2022-08-05T02:04:19.224Z,5.18
2022-08-05T02:08:29.755Z,7.13
2022-08-05T02:12:39.503Z,4.93
2022-08-05T02:16:47.270Z,7.43
2022-08-05T02:21:03.807Z,4.45
2022-08-05T02:25:13.621Z,3.95
2022-08-05T02:29:24.140Z,3.97
2022-08-05T02:33:38.411Z,9.38
2022-08-05T02:37:47.727Z,11.50
2022-08-05T02:42:01.493Z,10.25
2022-08-05T02:46:06.068Z,13.75
2022-08-05T02:50:10.450Z,9.70
2022-08-05T02:54:35.726Z,11.63
2022-08-05T02:58:43.755Z,9.05
2022-08-05T03:02:48.744Z,7.78
2022-08-05T03:06:55.218Z,8.13
2022-08-05T03:11:55.639Z,10.13
2022-08-05T03:15:25.875Z,8.35
2022-08-05T03:19:33.748Z,8.35
2022-08-05T03:23:39.321Z,8.60
2022-08-05T03:28:00.048Z,5.32
2022-08-05T03:32:04.751Z,6.45
2022-08-05T03:36:11.966Z,5.60
2022-08-05T03:40:24.246Z,6.72
2022-08-05T03:44:35.650Z,5.80
2022-08-05T03:48:38.457Z,5.22
2022-08-05T03:55:53.476Z,5.55
2022-08-05T03:57:34.172Z,4.88
2022-08-05T04:01:43.192Z,5.15
2022-08-05T04:05:49.735Z,6.97
2022-08-05T04:09:54.028Z,5.97
2022-08-05T04:14:00.444Z,5.90
2022-08-05T04:18:07.986Z,5.57
2022-08-05T04:22:13.037Z,4.88
2022-08-05T04:26:23.340Z,5.88
2022-08-05T04:30:26.367Z,5.80
2022-08-05T04:34:33.805Z,4.15
2022-08-05T04:38:39.561Z,4.95
2022-08-05T04:42:42.824Z,6.00
2022-08-05T04:46:49.219Z,5.93
2022-08-05T04:51:01.671Z,7.10
2022-08-05T04:55:15.073Z,8.10
2022-08-05T04:59:26.636Z,10.52
2022-08-05T05:03:42.137Z,8.35
2022-08-05T05:07:52.971Z,15.50
2022-08-05T05:12:02.815Z,11.40
2022-08-05T05:16:07.130Z,46.75
2022-08-05T05:20:11.328Z,48.85
2022-08-05T05:24:15.448Z,82.97
2022-08-05T05:28:21.122Z,27.98
2022-08-05T05:32:23.881Z,8.00
2022-08-05T05:36:29.801Z,10.55
2022-08-05T05:40:34.610Z,10.10
2022-08-05T05:44:42.931Z,46.08
2022-08-05T05:48:49.128Z,11.35
2022-08-05T05:52:52.047Z,53.13
2022-08-05T05:56:56.141Z,11.57
2022-08-05T06:01:12.196Z,9.50
2022-08-05T06:05:17.313Z,6.60
2022-08-05T06:09:26.641Z,11.32
2022-08-05T06:13:53.768Z,13.18
2022-08-05T06:17:58.165Z,22.38
2022-08-05T06:22:00.994Z,28.27
2022-08-05T06:26:20.845Z,34.75
2022-08-05T06:30:27.315Z,30.92
2022-08-05T06:34:30.837Z,32.88
2022-08-05T06:38:36.496Z,31.02
2022-08-05T06:42:40.349Z,29.30
2022-08-05T06:46:44.527Z,22.25
2022-08-05T06:50:47.858Z,22.23
2022-08-05T06:54:52.793Z,13.80
2022-08-05T06:58:56.515Z,11.65
2022-08-05T07:03:01.385Z,9.40
2022-08-05T07:07:07.897Z,10.50
2022-08-05T07:11:15.289Z,12.38
2022-08-05T07:16:01.074Z,12.15
2022-08-05T07:24:24.057Z,13.93
2022-08-05T07:28:31.751Z,14.95
2022-08-05T07:32:36.701Z,16.80
2022-08-05T07:36:40.976Z,14.52
2022-08-05T07:40:44.737Z,15.60
2022-08-05T07:44:48.804Z,15.20
2022-08-05T07:49:04.156Z,17.00
2022-08-05T07:53:10.473Z,12.32
2022-08-05T07:57:57.509Z,15.77
2022-08-05T08:01:51.590Z,13.88
2022-08-05T08:05:54.916Z,14.32
2022-08-05T08:10:00.975Z,13.30
2022-08-05T08:14:04.434Z,12.82
2022-08-05T08:18:13.697Z,13.70
2022-08-05T08:22:17.410Z,15.00
2022-08-05T08:26:29.819Z,13.18
2022-08-05T08:30:40.872Z,11.15
2022-08-05T08:34:50.699Z,11.48
2022-08-05T08:38:55.303Z,13.93
2022-08-05T08:45:20.893Z,12.93
2022-08-05T08:48:06.233Z,12.98
2022-08-05T08:52:03.647Z,12.82
2022-08-05T08:56:09.436Z,13.13
2022-08-05T09:00:15.639Z,13.70
2022-08-05T09:04:22.566Z,13.60
2022-08-05T09:08:33.800Z,15.93
2022-08-05T09:12:36.811Z,15.77
2022-08-05T09:16:41.539Z,16.02
2022-08-05T09:20:51.744Z,18.23
2022-08-05T09:25:02.009Z,18.00
2022-08-05T09:29:47.537Z,17.35
2022-08-05T09:33:54.268Z,18.60
2022-08-05T09:38:17.603Z,22.20
2022-08-05T09:42:24.219Z,15.40
2022-08-05T09:46:32.890Z,18.00
2022-08-05T09:50:44.410Z,16.58
2022-08-05T09:54:56.240Z,16.45
2022-08-05T09:59:01.120Z,17.45
2022-08-05T10:03:11.404Z,15.85
2022-08-05T10:07:31.878Z,14.85
2022-08-05T10:11:38.948Z,15.90
2022-08-05T10:15:43.890Z,17.15
2022-08-05T10:20:03.948Z,17.63
2022-08-05T10:24:15.125Z,14.23
2022-08-05T10:28:29.410Z,11.48
2022-08-05T10:32:52.809Z,11.27
2022-08-05T10:36:56.498Z,9.98
2022-08-05T10:41:07.378Z,10.18
2022-08-05T10:45:23.222Z,9.55
2022-08-05T10:49:33.210Z,10.82
2022-08-05T10:53:45.646Z,11.85
2022-08-05T10:57:51.331Z,10.18
2022-08-05T11:02:08.637Z,9.23
2022-08-05T11:06:18.041Z,8.23
2022-08-05T11:10:27.377Z,8.52
2022-08-05T11:15:01.506Z,8.38
2022-08-05T11:20:10.165Z,8.15
2022-08-05T11:24:05.020Z,11.20
2022-08-05T11:28:44.182Z,8.27
2022-08-05T11:32:48.389Z,10.50
2022-08-05T11:36:53.234Z,9.23
2022-08-05T11:41:03.542Z,9.43
2022-08-05T11:45:27.046Z,6.28
2022-08-05T11:49:50.919Z,9.55
2022-08-05T11:53:54.794Z,8.02
2022-08-05T13:27:37.364Z,3.65
2022-08-05T13:32:04.791Z,3.63
2022-08-05T13:36:05.365Z,5.25
2022-08-05T13:40:16.739Z,3.20
2022-08-05T13:44:31.670Z,3.25
2022-08-05T13:48:57.519Z,3.20
2022-08-05T13:53:00.259Z,3.13
2022-08-05T13:57:03.018Z,4.38
2022-08-05T14:01:10.415Z,7.70
2022-08-05T14:05:15.383Z,4.63
2022-08-05T14:09:22.314Z,4.13
2022-08-05T14:13:25.452Z,5.28
2022-08-05T14:20:17.515Z,3.70
2022-08-05T14:24:21.319Z,4.32
2022-08-05T14:28:26.840Z,3.83
2022-08-05T14:32:31.342Z,3.25
2022-08-05T14:36:35.581Z,3.65
2022-08-05T14:40:39.381Z,4.38
2022-08-05T14:44:42.271Z,4.40
2022-08-05T14:48:49.242Z,4.13
2022-08-05T14:52:57.818Z,4.68
2022-08-05T14:57:02.675Z,5.15
2022-08-05T15:01:15.564Z,4.30
2022-08-05T15:05:19.118Z,4.40
2022-08-05T15:09:52.428Z,6.95
2022-08-05T15:13:50.190Z,5.40
2022-08-05T15:17:53.305Z,5.32
2022-08-05T15:22:00.286Z,6.60
2022-08-05T15:26:05.170Z,5.53
2022-08-05T15:30:14.347Z,5.60
2022-08-05T15:34:33.058Z,5.30
2022-08-05T15:38:41.267Z,4.90
2022-08-05T15:42:55.903Z,6.53
2022-08-05T15:47:03.600Z,5.03
2022-08-05T15:51:06.769Z,3.50
2022-08-05T15:55:16.099Z,4.28
2022-08-05T15:59:22.147Z,4.28
2022-08-05T16:03:26.854Z,5.43
2022-08-05T16:07:29.829Z,4.50
2022-08-05T16:11:43.123Z,3.70
2022-08-05T16:15:47.709Z,3.28
2022-08-05T16:20:05.296Z,4.55
2022-08-05T16:24:41.393Z,6.25
2022-08-05T16:28:37.285Z,4.00
2022-08-05T16:32:45.561Z,4.63
2022-08-05T16:36:50.162Z,6.30
2022-08-05T16:41:00.259Z,4.95
2022-08-05T16:45:05.787Z,4.60
2022-08-05T16:49:12.233Z,2.72
2022-08-05T16:53:22.541Z,3.03
2022-08-05T16:57:52.890Z,2.55
2022-08-05T17:01:54.758Z,2.85
2022-08-05T17:06:01.044Z,3.42
2022-08-05T17:10:04.083Z,4.00
2022-08-05T17:14:06.877Z,2.70
2022-08-05T17:18:16.171Z,3.63
2022-08-05T17:22:25.555Z,3.55
2022-08-05T17:26:28.768Z,5.85
2022-08-05T17:30:31.887Z,5.18
2022-08-05T17:34:34.990Z,2.53
2022-08-05T17:38:39.704Z,3.92
2022-08-05T17:42:51.370Z,3.10
2022-08-05T17:46:55.802Z,2.95
2022-08-05T17:50:58.592Z,3.13
2022-08-05T17:55:03.231Z,1.70
2022-08-05T17:59:07.026Z,2.10
2022-08-05T18:03:11.286Z,2.60
2022-08-05T18:07:14.035Z,1.63
2022-08-05T18:11:24.496Z,1.27
2022-08-05T18:15:36.196Z,1.60
2022-08-05T18:19:41.706Z,1.17
2022-08-05T18:23:54.417Z,0.77
2022-08-05T18:27:58.704Z,1.48
2022-08-05T18:32:04.855Z,1.52
2022-08-05T18:36:11.900Z,1.15
2022-08-05T18:40:34.592Z,0.90
2022-08-05T18:44:49.345Z,0.60
2022-08-05T18:49:18.574Z,1.98
2022-08-05T18:53:22.983Z,1.27
2022-08-05T18:57:28.053Z,2.38
2022-08-05T19:01:56.969Z,3.40
2022-08-05T19:06:11.176Z,3.30
2022-08-05T19:10:28.152Z,1.13
2022-08-05T19:14:37.808Z,1.23
2022-08-05T19:18:56.833Z,1.58
2022-08-05T19:23:00.071Z,0.80
2022-08-05T19:27:04.174Z,1.42
2022-08-05T19:31:07.165Z,2.80
2022-08-05T19:35:11.858Z,1.15
2022-08-05T19:39:18.428Z,1.15
2022-08-05T19:44:05.771Z,2.78
2022-08-05T19:47:47.596Z,0.88
2022-08-05T19:52:08.948Z,2.28
2022-08-05T19:56:29.878Z,3.83
2022-08-05T20:00:35.814Z,2.33
2022-08-05T20:04:43.095Z,2.08
2022-08-05T20:08:52.204Z,2.67
2022-08-05T20:12:56.379Z,2.72
2022-08-05T20:17:01.621Z,1.63
2022-08-05T20:21:06.581Z,1.52
2022-08-05T20:25:11.592Z,3.28
2022-08-05T20:29:27.436Z,1.00
2022-08-05T20:33:30.994Z,1.85
2022-08-05T20:38:06.507Z,2.53
2022-08-05T20:42:00.343Z,1.98
2022-08-05T20:46:03.259Z,1.88
2022-08-05T20:50:07.467Z,1.55
2022-08-05T20:54:14.198Z,2.75
2022-08-05T20:58:18.793Z,0.98
2022-08-05T21:02:26.877Z,2.60
2022-08-05T21:06:30.383Z,2.35
2022-08-05T21:10:33.524Z,2.42
2022-08-05T21:14:37.727Z,5.28
2022-08-05T21:18:44.973Z,4.47
2022-08-05T21:22:48.047Z,1.83
2022-08-05T21:26:57.959Z,1.98
2022-08-05T21:31:03.023Z,3.97
2022-08-05T21:35:18.406Z,2.45
2022-08-05T21:39:29.954Z,3.92
2022-08-05T21:43:41.545Z,1.80
2022-08-05T21:47:56.745Z,2.45
2022-08-05T21:52:27.402Z,3.55
2022-08-05T21:56:23.384Z,2.00
2022-08-05T22:00:29.030Z,2.88
2022-08-05T22:04:33.213Z,2.10
2022-08-05T22:08:36.128Z,3.15
2022-08-05T22:12:50.576Z,2.40
2022-08-05T22:16:56.974Z,3.38
2022-08-05T22:21:04.831Z,2.08
2022-08-05T22:26:10.334Z,4.25
2022-08-05T22:30:02.706Z,2.30
2022-08-05T22:34:07.089Z,4.72
2022-08-05T22:38:12.636Z,2.33
2022-08-05T22:42:25.259Z,2.42
2022-08-05T22:46:28.364Z,4.00
2022-08-05T22:50:32.843Z,2.78
2022-08-05T22:54:40.398Z,2.42
2022-08-05T22:58:51.796Z,5.97
2022-08-05T23:02:58.264Z,3.67
2022-08-05T23:07:01.243Z,2.38
2022-08-05T23:11:06.009Z,4.82
2022-08-05T23:15:12.221Z,2.70
2022-08-05T23:19:25.769Z,2.00
2022-08-05T23:23:30.005Z,2.05
2022-08-05T23:27:42.439Z,3.95
2022-08-05T23:32:00.833Z,2.47
2022-08-05T23:36:03.822Z,5.80
2022-08-05T23:40:10.853Z,1.90
2022-08-05T23:44:16.557Z,2.35
2022-08-05T23:48:22.411Z,4.05
2022-08-05T23:52:30.815Z,3.08
2022-08-05T23:56:36.107Z,3.80
